South Ashfield, Massachusetts
Current Conditions -  °F | °C
As of 1:52 PM on Thursday 18 Dec 2014 (Local Time) from KAQW Reporting Station
Overcast Overcast  
Wind Chill: 25°   Ceiling: 2200
Heat Index: 34°   Visibility: 10mi
Dew Point: 27°   Wind: 14mph
Humidity: 75%   Direction: 270°W
Pressure: 29.86"   Gusts: NA
Location:  42.5227°N, 72.8242°W
Report Text: KAQW 181852Z AUTO 27012KT 10SM OVC022 01/M03 A2986 RMK AO2 SLP118 T00111028
Loading
Personal Weather Stations






























Interactive Weather Map New forecast layout! Learn more

10-Day Weather Forecast

Advertisements
Track Severe Weather on mobile